Map

Track Data

SID SEASON NUMBER BASIN SUBBASIN NAME ISO_TIME NATURE LAT LON WMO_WIND WMO_PRES WMO_AGENCY TRACK_TYPE DIST2LAND LANDFALL IFLAG USA_AGENCY USA_ATCF_ID USA_LAT USA_LON USA_RECORD USA_STATUS USA_WIND USA_PRES USA_SSHS USA_R34_NE USA_R34_SE USA_R34_SW USA_R34_NW USA_R50_NE USA_R50_SE USA_R50_SW USA_R50_NW USA_R64_NE USA_R64_SE USA_R64_SW USA_R64_NW USA_POCI USA_ROCI USA_RMW USA_EYE TOKYO_LAT TOKYO_LON TOKYO_GRADE TOKYO_WIND TOKYO_PRES TOKYO_R50_DIR TOKYO_R50_LONG TOKYO_R50_SHORT TOKYO_R30_DIR TOKYO_R30_LONG TOKYO_R30_SHORT TOKYO_LAND CMA_LAT CMA_LON CMA_CAT CMA_WIND CMA_PRES HKO_LAT HKO_LON HKO_CAT HKO_WIND HKO_PRES NEWDELHI_LAT NEWDELHI_LON NEWDELHI_GRADE NEWDELHI_WIND NEWDELHI_PRES NEWDELHI_CI NEWDELHI_DP NEWDELHI_POCI REUNION_LAT REUNION_LON REUNION_TYPE REUNION_WIND REUNION_PRES REUNION_TNUM REUNION_CI REUNION_RMW REUNION_R34_NE REUNION_R34_SE REUNION_R34_SW REUNION_R34_NW REUNION_R50_NE REUNION_R50_SE REUNION_R50_SW REUNION_R50_NW REUNION_R64_NE REUNION_R64_SE REUNION_R64_SW REUNION_R64_NW BOM_LAT BOM_LON BOM_TYPE BOM_WIND BOM_PRES BOM_TNUM BOM_CI BOM_RMW BOM_R34_NE BOM_R34_SE BOM_R34_SW BOM_R34_NW BOM_R50_NE BOM_R50_SE BOM_R50_SW BOM_R50_NW BOM_R64_NE BOM_R64_SE BOM_R64_SW BOM_R64_NW BOM_ROCI BOM_POCI BOM_EYE BOM_POS_METHOD BOM_PRES_METHOD NADI_LAT NADI_LON NADI_CAT NADI_WIND NADI_PRES WELLINGTON_LAT WELLINGTON_LON WELLINGTON_WIND WELLINGTON_PRES DS824_LAT DS824_LON DS824_STAGE DS824_WIND DS824_PRES TD9636_LAT TD9636_LON TD9636_STAGE TD9636_WIND TD9636_PRES TD9635_LAT TD9635_LON TD9635_WIND TD9635_PRES TD9635_ROCI NEUMANN_LAT NEUMANN_LON NEUMANN_CLASS NEUMANN_WIND NEUMANN_PRES MLC_LAT MLC_LON MLC_CLASS MLC_WIND MLC_PRES USA_GUST BOM_GUST BOM_GUST_PER REUNION_GUST REUNION_GUST_PER USA_SEAHGT USA_SEARAD_NE USA_SEARAD_SE USA_SEARAD_SW USA_SEARAD_NW STORM_SPEED STORM_DIR
1933212N06150 1933 36 WP MM NOT_NAMED 1933-07-30 22:00:00 NR 5.80000 149.700 main 921 921 __________O___ -1 5.80000 149.700 7 9 329
1933212N06150 1933 36 WP MM NOT_NAMED 1933-07-31 00:00:00 NR 6.06354 149.535 main 948 948 __________P___ -1 6.06354 149.535 7 9 327
1933212N06150 1933 36 WP MM NOT_NAMED 1933-07-31 03:00:00 NR 6.44750 149.274 main 975 984 __________P___ -1 6.44750 149.274 7 9 323
1933212N06150 1933 36 WP MM NOT_NAMED 1933-07-31 06:00:00 NR 6.80234 148.979 main 1013 1011 __________P___ -1 6.80234 148.979 7 9 316
1933212N06150 1933 36 WP MM NOT_NAMED 1933-07-31 09:00:00 NR 7.11061 148.631 main 1039 1039 __________P___ -1 7.11061 148.631 7 9 310
1933212N06150 1933 36 WP MM NOT_NAMED 1933-07-31 10:00:00 NR 7.20000 148.500 main 1049 1048 __________O___ -1 7.20000 148.500 7 10 301
1933212N06150 1933 36 WP MM NOT_NAMED 1933-07-31 12:00:00 NR 7.35629 148.213 main 1068 1066 __________P___ -1 7.35629 148.213 7 10 294
1933212N06150 1933 36 WP MM NOT_NAMED 1933-07-31 15:00:00 NR 7.54044 147.738 main 1076 1076 __________P___ -1 7.54044 147.738 7 10 288
1933212N06150 1933 36 WP MM NOT_NAMED 1933-07-31 18:00:00 NR 7.67528 147.240 main 1098 1098 __________P___ -1 7.67528 147.240 7 10 283
1933212N06150 1933 36 WP MM NOT_NAMED 1933-07-31 21:00:00 NR 7.77331 146.754 main 1109 1109 __________P___ -1 7.77331 146.754 7 10 281
1933212N06150 1933 36 WP MM NOT_NAMED 1933-07-31 22:00:00 NR 7.80000 146.600 main 1109 1109 __________O___ -1 7.80000 146.600 7 9 282
1933212N06150 1933 36 WP MM NOT_NAMED 1933-08-01 00:00:00 NR 7.85858 146.332 main 1121 1121 __________P___ -1 7.85858 146.332 7 8 281
1933212N06150 1933 36 WP MM NOT_NAMED 1933-08-01 03:00:00 NR 7.92143 145.956 main 1122 1123 __________P___ -1 7.92143 145.956 7 7 278
1933212N06150 1933 36 WP MM NOT_NAMED 1933-08-01 06:00:00 NR 7.96262 145.594 main 1137 1137 __________P___ -1 7.96262 145.594 7 7 276
1933212N06150 1933 36 WP MM NOT_NAMED 1933-08-01 09:00:00 NR 7.99150 145.227 main 1142 1142 __________P___ -1 7.99150 145.227 7 7 274
1933212N06150 1933 36 WP MM NOT_NAMED 1933-08-01 10:00:00 NR 8.00000 145.100 main 1143 1143 __________O___ -1 8.00000 145.100 7 7 276
1933212N06150 1933 36 WP MM NOT_NAMED 1933-08-01 12:00:00 NR 8.02426 144.893 main 1147 1147 __________P___ -1 8.02426 144.893 7 6 276
1933212N06150 1933 36 WP MM NOT_NAMED 1933-08-01 15:00:00 NR 8.05455 144.573 main 1164 1164 __________P___ -1 8.05455 144.573 7 7 274
1933212N06150 1933 36 WP MM NOT_NAMED 1933-08-01 18:00:00 NR 8.07818 144.175 main 1173 1176 __________P___ -1 8.07818 144.175 7 9 273
1933212N06150 1933 36 WP MM NOT_NAMED 1933-08-01 21:00:00 NR 8.09558 143.628 main 1190 1190 __________P___ -1 8.09558 143.628 7 12 272
1933212N06150 1933 36 WP MM NOT_NAMED 1933-08-01 22:00:00 NR 8.10000 143.400 main 1196 1196 __________O___ -1 8.10000 143.400 7 16 270
1933212N06150 1933 36 WP MM NOT_NAMED 1933-08-02 00:00:00 NR 8.09854 142.840 main 1199 1158 __________P___ -1 8.09854 142.840 7 19 270
1933212N06150 1933 36 WP MM NOT_NAMED 1933-08-02 03:00:00 NR 8.08942 141.842 main 1158 1121 __________P___ -1 8.08942 141.842 7 21 270
1933212N06150 1933 36 WP MM NOT_NAMED 1933-08-02 06:00:00 NR 8.08276 140.727 main 1121 1078 __________P___ -1 8.08276 140.727 7 22 270
1933212N06150 1933 36 WP MM NOT_NAMED 1933-08-02 09:00:00 NR 8.09139 139.577 main 1078 1066 __________P___ -1 8.09139 139.577 7 23 271
1933212N06150 1933 36 WP MM NOT_NAMED 1933-08-02 10:00:00 NR 8.10000 139.200 main 1062 1033 __________O___ -1 8.10000 139.200 7 23 272
1933212N06150 1933 36 WP MM NOT_NAMED 1933-08-02 12:00:00 NR 8.13352 138.420 main 1033 1014 __________P___ -1 8.13352 138.420 7 23 273
1933212N06150 1933 36 WP MM NOT_NAMED 1933-08-02 15:00:00 NR 8.20262 137.253 main 1014 1003 __________P___ -1 8.20262 137.253 7 22 274
1933212N06150 1933 36 WP MM NOT_NAMED 1933-08-02 18:00:00 NR 8.28514 136.186 main 1010 961 __________P___ -1 8.28514 136.186 7 19 275
1933212N06150 1933 36 WP MM NOT_NAMED 1933-08-02 21:00:00 NR 8.37174 135.323 main 961 939 __________P___ -1 8.37174 135.323 7 16 276
1933212N06150 1933 36 WP MM NOT_NAMED 1933-08-02 22:00:00 NR 8.40000 135.100 main 939 907 __________O___ -1 8.40000 135.100 7 10 277
1933212N06150 1933 36 WP MM NOT_NAMED 1933-08-03 00:00:00 NR 8.43820 134.800 main 907 886 __________P___ -1 8.43820 134.800 7 6 280
1933212N06150 1933 36 WP MM NOT_NAMED 1933-08-03 03:00:00 NR 8.49656 134.571 main 886 875 __________P___ -1 8.49656 134.571 7 3 294
1933212N06150 1933 36 WP MM NOT_NAMED 1933-08-03 06:00:00 NR 8.56698 134.510 main 876 876 __________P___ -1 8.56698 134.510 7 2 339
1933212N06150 1933 36 WP MM NOT_NAMED 1933-08-03 09:00:00 NR 8.66126 134.507 main 877 877 __________P___ -1 8.66126 134.507 7 2 0
1933212N06150 1933 36 WP MM NOT_NAMED 1933-08-03 10:00:00 NR 8.70000 134.500 main 877 867 __________O___ -1 8.70000 134.500 7 3 322
1933212N06150 1933 36 WP MM NOT_NAMED 1933-08-03 12:00:00 NR 8.79643 134.403 main 867 858 __________P___ -1 8.79643 134.403 7 4 318
1933212N06150 1933 36 WP MM NOT_NAMED 1933-08-03 15:00:00 NR 8.96638 134.257 main 860 840 __________P___ -1 8.96638 134.257 7 5 321
1933212N06150 1933 36 WP MM NOT_NAMED 1933-08-03 18:00:00 NR 9.15280 134.108 main 842 831 __________P___ -1 9.15280 134.108 7 5 321
1933212N06150 1933 36 WP MM NOT_NAMED 1933-08-03 21:00:00 NR 9.34008 133.953 main 833 825 __________P___ -1 9.34008 133.953 7 5 320
1933212N06150 1933 36 WP MM NOT_NAMED 1933-08-03 22:00:00 NR 9.40000 133.900 main 825 817 __________O___ -1 9.40000 133.900 7 5 319
1933212N06150 1933 36 WP MM NOT_NAMED 1933-08-04 00:00:00 NR 9.51089 133.802 main 817 801 __________P___ -1 9.51089 133.802 7 4 318
1933212N06150 1933 36 WP MM NOT_NAMED 1933-08-04 03:00:00 NR 9.67105 133.649 main 801 794 __________P___ -1 9.67105 133.649 7 4 314
1933212N06150 1933 36 WP MM NOT_NAMED 1933-08-04 06:00:00 NR 9.82108 133.478 main 794 776 __________P___ -1 9.82108 133.478 7 5 308
1933212N06150 1933 36 WP MM NOT_NAMED 1933-08-04 09:00:00 NR 9.95788 133.276 main 780 769 __________P___ -1 9.95788 133.276 7 5 303
1933212N06150 1933 36 WP MM NOT_NAMED 1933-08-04 10:00:00 NR 10.0000 133.200 main 769 749 __________O___ -1 10.0000 133.200 7 5 297
1933212N06150 1933 36 WP MM NOT_NAMED 1933-08-04 12:00:00 NR 10.0787 133.032 main 749 719 __________P___ -1 10.0787 133.032 7 6 293
1933212N06150 1933 36 WP MM NOT_NAMED 1933-08-04 15:00:00 NR 10.1850 132.749 main 719 690 __________P___ -1 10.1850 132.749 7 6 289
1933212N06150 1933 36 WP MM NOT_NAMED 1933-08-04 18:00:00 NR 10.2809 132.438 main 690 660 __________P___ -1 10.2809 132.438 7 7 286
1933212N06150 1933 36 WP MM NOT_NAMED 1933-08-04 21:00:00 NR 10.3707 132.111 main 660 650 __________P___ -1 10.3707 132.111 7 7 285
1933212N06150 1933 36 WP MM NOT_NAMED 1933-08-04 22:00:00 NR 10.4000 132.000 main 650 __________O___ -1 10.4000 132.000 7 7 284

Digital Typhoon Data and Search

About IBTrACS Database

This database is a web-friendly format of International Best Track Archive for Climate Stewardship (IBTrACS), a global best track data archive curated by NOAA dating back to 1842.

Updated: 2021-12-03